Time;durP1;ratioP1;P1;durP2;ratioP2;P2;SDS_P1;SDS_P2;PMS_P1;PMS_P2;Temp;Humidity;BMP_temperature;BMP_pressure;BME280_temperature;BME280_humidity;BME280_pressure;Samples;Min_cycle;Max_cycle;Signal;HPM_P1;HPM_P2
2022/01/04 07:38:14;;;;;;;315.30;109.50;;;1.60;99.90;;;;;;5113956;27;20373;-88
2022/01/04 07:40:40;;;;;;;313.50;113.13;;;1.40;99.90;;;;;;5112180;28;20591;-88
2022/01/04 07:43:06;;;;;;;332.92;124.53;;;1.60;99.90;;;;;;5112408;28;20033;-88
2022/01/04 07:45:33;;;;;;;320.52;122.88;;;1.80;99.90;;;;;;5111992;28;20024;-87
2022/01/04 07:48:00;;;;;;;315.40;117.47;;;1.90;99.90;;;;;;5111245;28;20119;-88
2022/01/04 07:50:27;;;;;;;296.38;113.30;;;2.10;99.90;;;;;;5112068;28;20030;-89
2022/01/04 07:52:53;;;;;;;288.30;110.55;;;2.30;99.90;;;;;;5111927;28;20434;-88
2022/01/04 07:55:20;;;;;;;272.58;110.10;;;2.50;99.90;;;;;;5113177;28;20020;-89
2022/01/04 07:57:46;;;;;;;233.07;92.05;;;2.70;99.90;;;;;;5111757;28;20478;-89
2022/01/04 08:00:14;;;;;;;220.68;93.47;;;2.80;99.90;;;;;;5112163;28;20161;-89
2022/01/04 08:02:40;;;;;;;203.68;86.45;;;3.00;99.90;;;;;;5112207;28;20019;-90
2022/01/04 08:05:08;;;;;;;212.75;91.10;;;3.20;99.90;;;;;;5112121;28;20153;-91
2022/01/04 08:07:34;;;;;;;225.43;92.68;;;3.30;99.90;;;;;;5124174;28;20027;-92
2022/01/04 08:10:00;;;;;;;241.85;97.63;;;3.40;99.90;;;;;;5132596;28;20508;-92
2022/01/04 08:12:26;;;;;;;225.63;92.28;;;3.50;99.90;;;;;;5132643;27;20085;-92
2022/01/04 08:14:52;;;;;;;208.48;89.38;;;3.60;99.90;;;;;;5133058;28;20020;-92
2022/01/04 08:17:18;;;;;;;219.98;93.07;;;3.80;99.90;;;;;;5132643;28;20023;-90
2022/01/04 08:19:44;;;;;;;229.77;96.57;;;3.80;99.90;;;;;;5114382;28;20077;-90
2022/01/04 08:22:10;;;;;;;188.45;83.18;;;3.90;99.90;;;;;;5111545;28;20462;-91
2022/01/04 08:24:48;;;;;;;215.60;93.40;;;4.00;99.90;;;;;;5112178;28;20111;-92
2022/01/04 08:27:14;;;;;;;215.95;95.57;;;4.10;99.90;;;;;;5114292;28;20020;-92
2022/01/04 08:29:40;;;;;;;231.07;100.32;;;4.20;99.90;;;;;;5112516;28;20505;-92
2022/01/04 08:32:06;;;;;;;196.23;89.93;;;4.30;99.90;;;;;;5112263;28;20027;-93
2022/01/04 08:34:32;;;;;;;198.77;92.80;;;4.40;99.90;;;;;;5111601;28;20470;-93
2022/01/04 08:36:58;;;;;;;216.40;101.45;;;4.40;99.90;;;;;;5112774;28;20052;-91
2022/01/04 08:46:13;;;;;;;208.75;94.53;;;4.80;99.90;;;;;;5050624;28;20035;-92
2022/01/04 08:48:48;;;;;;;231.80;105.25;;;4.90;99.90;;;;;;5082371;28;20123;-91
2022/01/04 08:51:26;;;;;;;209.38;95.72;;;5.00;99.90;;;;;;5118280;28;20031;-92
2022/01/04 08:57:10;;;;;;;239.35;106.50;;;5.00;99.90;;;;;;5056710;28;20451;-91
2022/01/04 09:03:14;;;;;;;234.93;102.32;;;5.10;99.90;;;;;;5046532;28;20111;-95
2022/01/04 09:05:42;;;;;;;246.63;106.78;;;5.30;99.90;;;;;;5020406;28;20526;-94
2022/01/04 09:08:36;;;;;;;252.95;111.70;;;5.40;99.90;;;;;;4978069;28;20067;-93
2022/01/04 09:11:21;;;;;;;250.80;111.57;;;5.40;99.90;;;;;;4967712;28;20088;-92
2022/01/04 09:14:12;;;;;;;244.25;107.05;;;5.50;99.90;;;;;;4992923;28;20035;-95
2022/01/04 09:20:21;;;;;;;212.90;98.93;;;5.60;99.90;;;;;;5078115;28;20024;-92
2022/01/04 09:22:50;;;;;;;218.75;99.20;;;5.70;99.90;;;;;;5052939;28;20067;-93
2022/01/04 09:25:36;;;;;;;331.55;130.50;;;5.80;99.90;;;;;;5029443;28;20479;-93
2022/01/04 09:31:05;;;;;;;264.20;110.93;;;5.90;99.90;;;;;;5033180;28;20038;-90
2022/01/04 09:36:58;;;;;;;240.25;103.43;;;6.00;99.90;;;;;;5031495;28;20075;-93
2022/01/04 09:39:25;;;;;;;254.38;107.85;;;6.10;99.90;;;;;;5094576;28;20048;-94
2022/01/04 09:42:30;;;;;;;269.13;114.93;;;6.20;99.90;;;;;;5116992;28;20023;-92
2022/01/04 09:44:59;;;;;;;260.98;112.95;;;6.30;99.90;;;;;;5117874;28;20019;-92
2022/01/04 09:50:50;;;;;;;258.63;116.80;;;6.50;99.90;;;;;;5108974;28;20057;-91
2022/01/04 09:56:26;;;;;;;275.17;126.82;;;6.80;99.90;;;;;;5097354;28;20471;-92
2022/01/04 10:16:35;;;;;;;286.23;133.65;;;7.70;99.90;;;;;;5034775;28;20048;-93
2022/01/04 10:19:01;;;;;;;332.67;148.57;;;7.90;99.90;;;;;;5067981;28;20059;-93
2022/01/04 10:21:27;;;;;;;281.48;131.93;;;8.00;99.90;;;;;;5101258;28;20030;-93
2022/01/04 10:31:03;;;;;;;298.88;134.10;;;8.30;99.90;;;;;;5033590;28;20075;-91
2022/01/04 10:33:31;;;;;;;275.23;128.88;;;8.40;99.90;;;;;;5065546;28;20039;-94
2022/01/04 10:36:29;;;;;;;313.92;140.93;;;8.60;99.90;;;;;;5115231;28;20027;-96
2022/01/04 10:38:55;;;;;;;292.05;135.60;;;8.70;99.90;;;;;;5115741;28;20370;-91
2022/01/04 10:41:25;;;;;;;281.33;131.63;;;8.70;99.90;;;;;;5121090;28;20077;-94
2022/01/04 10:44:03;;;;;;;286.27;132.43;;;8.80;99.90;;;;;;5123345;28;20023;-95
2022/01/04 10:50:27;;;;;;;315.23;137.90;;;9.00;99.90;;;;;;5074858;28;20019;-92
2022/01/04 10:52:53;;;;;;;318.83;144.73;;;9.00;99.90;;;;;;5058215;28;20032;-91
2022/01/04 10:55:19;;;;;;;347.30;156.32;;;9.10;99.90;;;;;;5057920;28;20426;-94
2022/01/04 10:57:47;;;;;;;358.52;155.52;;;9.20;99.90;;;;;;5057701;28;20044;-92
2022/01/04 11:03:49;;;;;;;;;;;;;;;;;;;;;
2022/01/04 11:06:38;;;;;;;388.45;164.73;;;9.30;99.90;;;;;;5034403;28;20483;-94
2022/01/04 11:09:06;;;;;;;361.40;160.80;;;9.40;99.90;;;;;;5039235;28;20071;-94
2022/01/04 11:11:32;;;;;;;353.58;163.43;;;9.50;99.90;;;;;;5040258;28;20029;-95
2022/01/04 11:14:02;;;;;;;359.63;163.25;;;9.50;99.90;;;;;;5037652;28;20071;-92
2022/01/04 11:16:33;;;;;;;382.42;178.57;;;9.60;99.90;;;;;;5037437;28;20029;-92
2022/01/04 11:19:27;;;;;;;345.58;163.90;;;9.70;99.90;;;;;;5040554;28;20037;-96
2022/01/04 11:22:18;;;;;;;349.13;163.25;;;9.80;99.90;;;;;;5095933;28;20488;-96
2022/01/04 11:24:46;;;;;;;319.50;149.80;;;9.80;99.90;;;;;;5096026;28;20517;-93
2022/01/04 11:27:12;;;;;;;334.15;154.60;;;9.90;99.90;;;;;;5095748;28;20115;-92
2022/01/04 11:29:45;;;;;;;283.50;134.52;;;9.90;99.90;;;;;;5095830;28;20024;-93
2022/01/04 11:32:16;;;;;;;304.80;141.80;;;9.90;99.90;;;;;;5095144;28;20368;-94
2022/01/04 11:35:07;;;;;;;327.88;144.05;;;9.90;99.90;;;;;;5095066;28;20112;-94
2022/01/04 11:37:33;;;;;;;345.77;152.38;;;10.00;99.90;;;;;;5095157;28;20030;-94
2022/01/04 11:40:00;;;;;;;329.38;147.63;;;10.00;99.90;;;;;;5095469;28;20032;-93
2022/01/04 11:42:35;;;;;;;316.65;142.48;;;10.00;99.90;;;;;;5095609;28;20020;-93
2022/01/04 11:45:02;;;;;;;326.75;146.70;;;10.10;99.90;;;;;;5094965;28;20027;-92
2022/01/04 11:47:30;;;;;;;391.10;176.50;;;10.10;99.90;;;;;;5094726;28;20008;-95
2022/01/04 11:50:09;;;;;;;381.13;177.05;;;10.20;99.90;;;;;;5095946;28;20024;-90
2022/01/04 11:52:55;;;;;;;354.58;162.02;;;10.20;99.90;;;;;;5094611;28;20031;-91
2022/01/04 11:55:24;;;;;;;329.08;153.48;;;10.30;99.90;;;;;;5094360;28;20028;-91
2022/01/04 11:57:52;;;;;;;331.05;152.65;;;10.20;99.90;;;;;;5094554;28;20118;-91
2022/01/04 12:00:30;;;;;;;390.65;186.13;;;10.30;99.90;;;;;;5094502;28;20016;-90
2022/01/04 12:03:05;;;;;;;391.05;190.65;;;10.50;99.90;;;;;;5094219;28;20023;-90
2022/01/04 12:05:32;;;;;;;424.17;219.05;;;10.60;99.90;;;;;;5094334;28;20420;-90
2022/01/04 12:07:59;;;;;;;392.73;193.77;;;10.70;99.90;;;;;;5093228;28;20070;-90
2022/01/04 12:10:25;;;;;;;381.42;186.55;;;10.80;99.90;;;;;;5093913;28;20029;-90
2022/01/04 12:12:58;;;;;;;362.50;185.68;;;10.90;99.90;;;;;;5094503;28;20024;-90
2022/01/04 12:15:43;;;;;;;349.00;171.88;;;11.00;99.90;;;;;;5094374;28;20119;-91
2022/01/04 12:18:30;;;;;;;354.48;176.75;;;11.20;99.90;;;;;;5094018;28;20024;-90
2022/01/04 12:20:59;;;;;;;341.55;161.23;;;11.30;99.90;;;;;;5093348;28;20109;-89
2022/01/04 12:23:35;;;;;;;319.13;154.68;;;11.50;99.90;;;;;;5094996;28;20028;-89
2022/01/04 12:26:14;;;;;;;306.63;155.63;;;11.70;99.90;;;;;;5097294;28;20034;-89
2022/01/04 12:28:44;;;;;;;309.80;154.80;;;11.80;99.90;;;;;;5097413;28;20020;-89
2022/01/04 12:31:24;;;;;;;326.92;162.23;;;11.90;99.90;;;;;;5097577;28;20027;-89
2022/01/04 12:34:23;;;;;;;307.15;149.15;;;12.00;99.90;;;;;;5097636;28;20492;-89
2022/01/04 12:36:52;;;;;;;293.10;143.63;;;12.00;99.90;;;;;;5096600;28;20491;-89
2022/01/04 12:39:33;;;;;;;393.15;204.35;;;12.10;99.90;;;;;;5097482;28;20067;-89
2022/01/04 12:41:59;;;;;;;437.60;225.57;;;12.30;99.90;;;;;;5097052;28;20494;-87
2022/01/04 12:44:28;;;;;;;496.50;264.75;;;12.40;99.90;;;;;;5097052;28;20064;-87
2022/01/04 12:46:54;;;;;;;485.50;259.35;;;12.70;99.90;;;;;;5097185;28;20028;-89
2022/01/04 12:49:22;;;;;;;461.98;242.52;;;12.80;99.90;;;;;;5097122;28;20024;-88
2022/01/04 12:51:54;;;;;;;434.10;227.50;;;13.00;99.90;;;;;;5097381;28;20054;-88
2022/01/04 12:54:24;;;;;;;459.80;244.50;;;13.30;99.90;;;;;;5098034;28;20016;-88
2022/01/04 12:57:11;;;;;;;492.50;271.70;;;13.70;99.90;;;;;;5097854;28;20081;-88
2022/01/04 12:59:43;;;;;;;457.65;247.10;;;14.10;99.90;;;;;;5096821;28;20028;-88
2022/01/04 13:02:20;;;;;;;436.70;237.65;;;14.40;99.90;;;;;;5097244;28;20024;-88
2022/01/04 13:04:49;;;;;;;517.03;274.35;;;14.60;99.90;;;;;;5096741;28;20035;-88
2022/01/04 13:07:19;;;;;;;490.60;261.10;;;14.70;99.40;;;;;;5096625;28;20039;-88
2022/01/04 13:09:53;;;;;;;473.00;251.70;;;14.70;99.20;;;;;;5096908;28;20024;-86
2022/01/04 13:12:26;;;;;;;450.35;246.38;;;14.80;98.90;;;;;;5096404;28;20050;-88
2022/01/04 13:14:52;;;;;;;427.00;221.93;;;15.00;98.70;;;;;;5096673;28;20024;-88
2022/01/04 13:17:19;;;;;;;398.42;199.63;;;15.20;98.90;;;;;;5098083;28;20028;-88
2022/01/04 13:19:45;;;;;;;377.48;187.05;;;15.50;98.20;;;;;;5096866;28;20030;-88
2022/01/04 13:22:17;;;;;;;351.55;169.18;;;15.80;97.80;;;;;;5097836;28;20471;-88
2022/01/04 13:24:46;;;;;;;369.77;179.02;;;16.10;97.60;;;;;;5097154;28;20020;-88
2022/01/04 13:27:55;;;;;;;;;;;;;;;;;;;;;
2022/01/04 13:30:57;;;;;;;250.18;127.60;;;16.30;96.00;;;;;;5100127;28;20092;-92
2022/01/04 13:33:32;;;;;;;223.10;114.10;;;16.70;94.90;;;;;;5099887;28;20073;-92
2022/01/04 13:35:59;;;;;;;225.77;113.32;;;17.00;95.60;;;;;;5097739;28;20020;-88
2022/01/04 13:38:27;;;;;;;215.68;111.18;;;17.20;95.00;;;;;;5095877;28;20051;-88
2022/01/04 13:40:59;;;;;;;208.38;105.60;;;17.20;94.40;;;;;;5096110;28;20077;-88
2022/01/04 13:43:40;;;;;;;215.77;108.15;;;17.30;94.40;;;;;;5096010;28;20081;-88
2022/01/04 13:46:13;;;;;;;236.40;115.72;;;17.40;93.40;;;;;;5095968;28;20070;-88
2022/01/04 13:48:45;;;;;;;400.95;192.82;;;17.20;92.90;;;;;;5096227;28;20032;-88
2022/01/04 13:51:16;;;;;;;361.90;170.70;;;17.00;93.00;;;;;;5096087;28;20363;-88
2022/01/04 13:53:47;;;;;;;303.20;146.43;;;16.80;93.70;;;;;;5095610;28;20017;-89
2022/01/04 13:56:15;;;;;;;314.70;149.65;;;16.70;92.90;;;;;;5079133;28;20024;-88
2022/01/04 13:58:47;;;;;;;319.90;147.60;;;16.50;93.90;;;;;;5096732;28;19996;-88
2022/01/04 14:01:36;;;;;;;295.48;141.80;;;16.40;94.30;;;;;;5095422;28;20024;-89
2022/01/04 14:04:23;;;;;;;309.88;148.75;;;16.50;94.00;;;;;;5095921;28;20379;-89
2022/01/04 14:06:56;;;;;;;347.05;165.35;;;16.60;94.10;;;;;;5095557;28;20118;-88
2022/01/04 14:09:27;;;;;;;325.27;155.65;;;16.60;94.10;;;;;;5095585;28;20024;-89
2022/01/04 14:12:11;;;;;;;346.20;166.93;;;16.60;94.50;;;;;;5095497;28;20040;-89
2022/01/04 14:14:46;;;;;;;405.23;203.02;;;16.50;94.00;;;;;;5095463;28;20012;-88
2022/01/04 14:17:35;;;;;;;352.05;171.48;;;16.40;94.70;;;;;;5095427;28;20047;-89
2022/01/04 14:20:10;;;;;;;276.27;134.48;;;16.20;94.80;;;;;;5095238;28;20020;-88
2022/01/04 14:22:40;;;;;;;260.52;124.55;;;16.10;94.70;;;;;;5095432;28;20024;-88
2022/01/04 14:25:09;;;;;;;263.65;131.57;;;16.10;95.20;;;;;;5095289;28;20400;-88
2022/01/04 14:27:43;;;;;;;259.88;124.32;;;16.00;94.90;;;;;;5095145;28;20024;-89
2022/01/04 14:30:14;;;;;;;251.75;123.45;;;15.90;94.60;;;;;;5095104;28;20020;-89
2022/01/04 14:32:51;;;;;;;269.63;129.93;;;15.70;94.60;;;;;;5095262;28;20386;-88
2022/01/04 14:35:26;;;;;;;228.98;108.97;;;15.60;94.70;;;;;;5095191;28;20024;-88
2022/01/04 14:37:54;;;;;;;241.82;116.85;;;15.20;94.50;;;;;;5095268;28;20466;-89
2022/01/04 14:40:22;;;;;;;217.35;106.82;;;15.00;95.70;;;;;;5094695;28;20028;-88
2022/01/04 14:42:49;;;;;;;219.05;103.22;;;14.80;95.80;;;;;;5094321;28;20035;-88
2022/01/04 14:45:17;;;;;;;242.93;115.97;;;14.70;95.30;;;;;;5094700;28;20028;-88
2022/01/04 14:47:45;;;;;;;326.00;145.00;;;14.70;96.00;;;;;;5094428;28;20500;-88
2022/01/04 14:50:11;;;;;;;334.80;146.23;;;14.50;95.90;;;;;;5094815;28;20016;-88
2022/01/04 14:52:38;;;;;;;294.98;132.15;;;14.00;96.60;;;;;;5094858;28;20462;-88
2022/01/04 14:55:05;;;;;;;268.30;124.18;;;13.70;97.60;;;;;;5094658;28;20027;-88
2022/01/04 14:57:31;;;;;;;267.70;120.00;;;13.80;97.60;;;;;;5095067;28;20469;-88
2022/01/04 14:59:58;;;;;;;187.27;80.40;;;13.70;97.00;;;;;;5094675;28;20431;-88
2022/01/04 15:02:25;;;;;;;280.33;126.93;;;13.70;95.70;;;;;;5094669;28;20490;-88
2022/01/04 15:04:55;;;;;;;258.05;114.13;;;13.50;96.90;;;;;;5094503;28;20032;-89
2022/01/04 15:07:22;;;;;;;274.90;119.32;;;13.40;97.10;;;;;;5095478;28;20028;-88
2022/01/04 15:09:47;;;;;;;182.48;75.93;;;13.20;97.10;;;;;;5094380;28;20031;-88
2022/01/04 15:12:13;;;;;;;181.20;75.78;;;13.10;94.90;;;;;;5094601;28;20020;-88
2022/01/04 15:14:40;;;;;;;129.85;53.40;;;13.10;95.10;;;;;;5094519;28;20027;-88
2022/01/04 15:17:13;;;;;;;133.10;56.15;;;13.20;95.10;;;;;;5094475;28;20024;-88
2022/01/04 15:19:43;;;;;;;150.80;61.22;;;13.10;95.50;;;;;;5093658;28;20122;-88
2022/01/04 15:22:09;;;;;;;122.07;54.30;;;13.10;95.60;;;;;;5094077;28;20023;-88
2022/01/04 15:24:35;;;;;;;109.50;49.65;;;13.00;95.30;;;;;;5094160;28;20023;-88
2022/01/04 15:27:01;;;;;;;101.40;45.20;;;13.00;95.80;;;;;;5094226;28;20077;-88
2022/01/04 15:29:27;;;;;;;83.97;37.85;;;12.90;95.50;;;;;;5094305;28;20020;-88
2022/01/04 15:31:53;;;;;;;74.93;35.63;;;12.90;95.20;;;;;;5094444;28;20023;-89
2022/01/04 15:34:19;;;;;;;55.47;27.10;;;12.90;95.50;;;;;;5094422;28;20485;-88
2022/01/04 15:36:45;;;;;;;49.22;24.75;;;12.90;94.30;;;;;;5094370;28;20123;-87
2022/01/04 15:39:21;;;;;;;51.58;24.08;;;12.90;93.90;;;;;;5094523;28;20059;-88
2022/01/04 15:41:54;;;;;;;51.90;24.23;;;12.90;94.50;;;;;;5094587;28;20032;-87
2022/01/04 15:44:22;;;;;;;49.42;23.92;;;12.90;94.50;;;;;;5094278;28;20114;-88
2022/01/04 15:46:49;;;;;;;56.95;23.00;;;12.90;94.60;;;;;;5094422;28;20024;-88
2022/01/04 15:49:14;;;;;;;46.40;21.90;;;12.90;94.40;;;;;;5094601;28;20024;-88
2022/01/04 15:51:42;;;;;;;46.58;22.52;;;12.80;95.20;;;;;;5094100;28;20020;-88
2022/01/04 15:54:09;;;;;;;40.65;20.80;;;12.80;94.70;;;;;;5094105;28;20063;-88
2022/01/04 15:56:35;;;;;;;50.53;23.20;;;12.70;95.20;;;;;;5093974;28;20028;-88
2022/01/04 15:59:01;;;;;;;49.97;27.42;;;12.70;95.00;;;;;;5095684;28;20060;-88
2022/01/04 16:01:27;;;;;;;63.40;30.35;;;12.70;95.00;;;;;;5098050;28;20028;-88
2022/01/04 16:03:53;;;;;;;99.05;42.08;;;12.60;95.10;;;;;;5098156;28;20028;-88
2022/01/04 16:06:19;;;;;;;175.43;70.82;;;12.50;96.30;;;;;;5098333;28;20494;-88
2022/01/04 16:08:45;;;;;;;213.57;83.35;;;12.40;95.50;;;;;;5098235;28;20053;-88
2022/01/04 16:11:12;;;;;;;274.75;113.57;;;12.30;95.80;;;;;;5098238;28;20020;-88
2022/01/04 16:13:38;;;;;;;268.83;113.68;;;12.20;96.30;;;;;;5097963;28;20021;-88
2022/01/04 16:24:08;;;;;;;340.83;147.60;;;11.70;97.10;;;;;;5099248;28;20076;-88
2022/01/04 16:26:37;;;;;;;348.23;147.90;;;11.50;97.20;;;;;;5097635;28;20470;-88
2022/01/04 16:29:10;;;;;;;380.80;170.20;;;11.40;97.40;;;;;;5099248;28;20016;-88
2022/01/04 16:31:36;;;;;;;395.42;171.43;;;11.30;97.50;;;;;;5098197;28;20158;-88
2022/01/04 16:34:03;;;;;;;357.73;153.25;;;11.00;98.00;;;;;;5099362;28;20024;-88
2022/01/04 16:36:35;;;;;;;347.02;145.70;;;11.00;98.20;;;;;;5098626;28;20390;-89
2022/01/04 16:39:07;;;;;;;328.65;135.85;;;10.80;98.60;;;;;;5097393;28;20433;-89
2022/01/04 16:41:34;;;;;;;325.55;140.95;;;10.70;98.60;;;;;;5097275;28;20039;-89
2022/01/04 16:44:04;;;;;;;355.13;147.32;;;10.60;98.80;;;;;;5097484;28;20024;-88
2022/01/04 16:46:32;;;;;;;314.33;137.57;;;10.50;99.00;;;;;;5097038;28;20031;-88
2022/01/04 16:48:58;;;;;;;327.42;136.27;;;10.40;99.40;;;;;;5097263;28;20020;-89
2022/01/04 16:51:26;;;;;;;325.75;134.90;;;10.30;99.40;;;;;;5096422;28;20059;-88
2022/01/04 16:53:52;;;;;;;322.60;130.35;;;10.20;99.50;;;;;;5097028;28;20053;-89
2022/01/04 16:56:18;;;;;;;333.10;132.32;;;10.20;99.90;;;;;;5096996;28;20020;-88
2022/01/04 16:58:43;;;;;;;367.20;143.68;;;10.10;99.90;;;;;;5096798;28;20092;-88
2022/01/04 17:01:09;;;;;;;324.67;131.45;;;10.00;99.70;;;;;;5098025;28;20020;-88
2022/01/04 17:03:35;;;;;;;314.25;123.57;;;10.00;99.70;;;;;;5096996;28;20024;-88
2022/01/04 17:06:02;;;;;;;299.02;119.88;;;9.90;99.90;;;;;;5098000;28;20027;-88
2022/01/04 17:08:32;;;;;;;315.88;126.25;;;9.90;99.90;;;;;;5096585;28;20516;-88
2022/01/04 17:11:05;;;;;;;306.45;122.03;;;9.90;99.90;;;;;;5096692;28;20020;-89
2022/01/04 17:16:15;;;;;;;280.02;116.75;;;9.70;99.90;;;;;;5098202;28;20501;-89
2022/01/04 17:18:42;;;;;;;265.17;114.55;;;9.60;99.90;;;;;;5096719;28;20020;-89
2022/01/04 17:21:08;;;;;;;245.30;107.15;;;9.60;99.90;;;;;;5096656;28;20020;-88
2022/01/04 17:23:35;;;;;;;291.58;120.68;;;9.60;99.90;;;;;;5096984;28;20217;-89
2022/01/04 17:26:01;;;;;;;256.38;114.15;;;9.50;99.90;;;;;;5096492;28;20033;-89
2022/01/04 17:28:37;;;;;;;257.88;107.28;;;9.50;99.90;;;;;;5096515;28;20032;-89
2022/01/04 17:31:05;;;;;;;239.98;100.35;;;9.40;99.90;;;;;;5096418;28;20381;-87
2022/01/04 17:33:31;;;;;;;242.35;99.30;;;9.30;99.90;;;;;;5095484;28;20020;-88
2022/01/04 17:35:57;;;;;;;228.70;96.25;;;9.30;99.90;;;;;;5096614;28;20111;-87
2022/01/04 17:38:23;;;;;;;221.13;92.45;;;9.20;99.90;;;;;;5096372;28;20052;-88
2022/01/04 17:40:52;;;;;;;223.40;90.15;;;9.20;99.90;;;;;;5096382;28;20046;-88
2022/01/04 17:43:18;;;;;;;236.82;98.47;;;9.10;99.90;;;;;;5096122;28;20120;-88
2022/01/04 17:45:44;;;;;;;210.60;86.22;;;9.00;99.90;;;;;;5095992;28;20524;-89
2022/01/04 17:48:18;;;;;;;227.13;94.45;;;9.00;99.90;;;;;;5096056;28;20035;-88
2022/01/04 17:50:44;;;;;;;222.02;84.75;;;9.00;99.90;;;;;;5095908;28;20024;-89
2022/01/04 17:53:13;;;;;;;213.45;85.25;;;9.00;99.90;;;;;;5095743;28;20016;-88
2022/01/04 17:55:40;;;;;;;223.02;90.15;;;9.00;99.90;;;;;;5095954;28;20089;-88
2022/01/04 17:58:06;;;;;;;208.48;86.18;;;9.00;99.90;;;;;;5095799;28;20024;-88
2022/01/04 18:00:34;;;;;;;227.57;90.05;;;9.00;99.90;;;;;;5095726;28;20028;-88
2022/01/04 18:03:00;;;;;;;210.82;81.05;;;9.00;99.90;;;;;;5095964;28;20028;-88
2022/01/04 18:05:26;;;;;;;206.00;77.10;;;9.00;99.90;;;;;;5095386;28;20028;-88
2022/01/04 18:07:52;;;;;;;259.58;97.22;;;8.90;99.90;;;;;;5095598;28;20095;-88
2022/01/04 18:10:19;;;;;;;277.65;106.30;;;8.90;99.90;;;;;;5095527;28;20071;-87
2022/01/04 18:12:46;;;;;;;340.23;126.75;;;8.80;99.90;;;;;;5096348;28;20382;-88
2022/01/04 18:15:12;;;;;;;281.38;106.55;;;8.50;99.90;;;;;;5095422;28;20028;-88
2022/01/04 18:17:38;;;;;;;313.23;116.35;;;8.40;99.90;;;;;;5095681;28;20031;-88
2022/01/04 18:20:06;;;;;;;420.52;169.20;;;8.50;99.90;;;;;;5095163;28;20028;-88
2022/01/04 18:22:33;;;;;;;355.38;133.07;;;8.40;99.90;;;;;;5095254;28;20057;-88
2022/01/04 18:24:59;;;;;;;297.08;116.15;;;8.20;99.90;;;;;;5095705;28;20028;-88
2022/01/04 18:27:25;;;;;;;299.90;115.43;;;8.20;99.90;;;;;;5094962;28;20085;-88
2022/01/04 18:29:51;;;;;;;283.05;109.35;;;8.10;99.90;;;;;;5094749;28;20020;-88
2022/01/04 18:32:17;;;;;;;221.73;82.80;;;8.20;99.90;;;;;;5094725;28;20036;-88
2022/01/04 18:34:43;;;;;;;222.77;87.28;;;8.20;99.90;;;;;;5094653;28;20024;-88
2022/01/04 18:37:09;;;;;;;217.82;85.57;;;8.10;99.90;;;;;;5094848;28;20035;-88
2022/01/04 18:39:35;;;;;;;211.25;83.70;;;8.30;99.90;;;;;;5094552;28;20109;-88
2022/01/04 18:42:02;;;;;;;230.50;96.00;;;8.30;99.90;;;;;;5094666;28;20062;-87
2022/01/04 18:44:28;;;;;;;232.23;93.47;;;8.40;99.90;;;;;;5094698;28;20020;-87
2022/01/04 18:46:54;;;;;;;210.45;88.90;;;8.30;99.90;;;;;;5093988;28;20024;-88
2022/01/04 18:49:20;;;;;;;214.75;86.93;;;8.20;99.90;;;;;;5094868;28;20020;-88
2022/01/04 18:51:46;;;;;;;195.10;81.60;;;8.30;99.90;;;;;;5094889;28;20107;-88
2022/01/04 18:54:13;;;;;;;244.45;98.93;;;8.40;99.90;;;;;;5094784;28;20043;-88
2022/01/04 18:56:40;;;;;;;221.75;92.50;;;8.30;99.90;;;;;;5094715;28;20360;-88
2022/01/04 18:59:06;;;;;;;247.43;97.70;;;8.40;99.90;;;;;;5094754;28;20073;-88
2022/01/04 19:01:33;;;;;;;235.82;98.15;;;8.30;99.90;;;;;;5094658;28;20063;-88
2022/01/04 19:04:00;;;;;;;240.40;99.00;;;8.20;99.90;;;;;;5094567;28;20024;-88
2022/01/04 19:06:26;;;;;;;232.50;97.70;;;8.10;99.90;;;;;;5094431;28;20020;-88
2022/01/04 19:08:51;;;;;;;183.13;75.78;;;8.10;99.90;;;;;;5094305;28;20024;-88
2022/01/04 19:11:17;;;;;;;207.55;80.68;;;8.00;99.90;;;;;;5094184;28;20378;-88
2022/01/04 19:13:43;;;;;;;170.85;71.63;;;8.00;99.90;;;;;;5094831;28;20047;-88
2022/01/04 19:16:10;;;;;;;218.48;87.35;;;8.00;99.90;;;;;;5094451;28;20425;-88
2022/01/04 19:18:37;;;;;;;229.35;91.82;;;8.00;99.90;;;;;;5094165;28;20051;-87
2022/01/04 19:21:04;;;;;;;254.75;95.35;;;8.00;99.90;;;;;;5093729;28;20118;-88
2022/01/04 19:23:32;;;;;;;264.25;101.22;;;7.90;99.90;;;;;;5094212;28;20028;-88
2022/01/04 19:25:58;;;;;;;393.27;150.70;;;7.90;99.90;;;;;;5094138;28;20055;-88
2022/01/04 19:28:24;;;;;;;317.80;127.35;;;7.90;99.90;;;;;;5094117;28;20024;-88
2022/01/04 19:30:54;;;;;;;350.60;136.48;;;7.90;99.90;;;;;;5094412;28;20478;-89
2022/01/04 19:36:15;;;;;;;283.08;111.32;;;7.70;99.90;;;;;;5095465;28;20024;-88
2022/01/04 19:38:46;;;;;;;270.23;106.55;;;7.70;99.90;;;;;;5093994;28;20044;-88
